createdAt,value
2022-10-22T15:32:58.314Z,12.15
2022-10-22T15:37:51.658Z,12.32
2022-10-22T15:41:19.512Z,11.98
2022-10-22T15:44:25.273Z,11.10
2022-10-22T15:47:29.646Z,11.00
2022-10-22T15:50:32.345Z,11.90
2022-10-22T15:53:34.662Z,12.33
2022-10-22T15:56:37.195Z,12.00
2022-10-22T15:59:39.518Z,12.82
2022-10-22T16:02:42.060Z,12.85
2022-10-22T16:05:54.552Z,13.02
2022-10-22T16:08:59.313Z,13.07
2022-10-22T16:12:02.014Z,13.25
2022-10-22T16:15:04.670Z,13.35
2022-10-22T16:18:07.350Z,13.90
2022-10-22T16:21:13.725Z,14.68
2022-10-22T16:24:16.726Z,13.97
2022-10-22T16:27:19.036Z,13.98
2022-10-22T16:30:21.623Z,15.20
2022-10-22T16:33:23.930Z,15.25
2022-10-22T16:36:26.613Z,14.65
2022-10-22T16:39:28.928Z,13.50
2022-10-22T16:42:31.439Z,14.10
2022-10-22T16:45:33.687Z,14.32
2022-10-22T16:48:40.411Z,14.65
2022-10-22T16:51:42.703Z,15.50
2022-10-22T16:54:46.766Z,15.40
2022-10-22T16:57:52.378Z,15.80
2022-10-22T17:00:54.955Z,20.33
2022-10-22T17:04:00.431Z,16.40
2022-10-22T17:07:02.974Z,16.73
2022-10-22T17:10:05.883Z,14.83
2022-10-22T17:13:08.479Z,15.77
2022-10-22T17:16:13.907Z,17.23
2022-10-22T17:19:16.550Z,15.20
2022-10-22T17:22:18.850Z,15.70
2022-10-22T17:25:47.616Z,15.63
2022-10-22T17:28:50.660Z,14.55
2022-10-22T17:31:53.244Z,13.45
2022-10-22T17:34:55.518Z,15.77
2022-10-22T17:37:58.058Z,15.35
2022-10-22T17:41:05.706Z,16.40
2022-10-22T17:44:12.306Z,17.33
2022-10-22T17:47:15.101Z,15.75
2022-10-22T17:50:18.919Z,16.02
2022-10-22T17:53:21.191Z,16.73
2022-10-22T17:56:29.827Z,14.37
2022-10-22T17:59:32.759Z,14.32
2022-10-22T18:02:35.324Z,15.00
2022-10-22T18:05:37.842Z,14.23
2022-10-22T18:08:40.426Z,15.63
2022-10-22T18:11:44.103Z,14.50
2022-10-22T18:14:47.118Z,14.68
2022-10-22T18:17:50.341Z,16.85
2022-10-22T18:20:53.374Z,14.43
2022-10-22T18:23:58.943Z,14.70
2022-10-22T18:27:01.214Z,14.87
2022-10-22T18:30:04.131Z,16.85
2022-10-22T18:33:07.214Z,15.07
2022-10-22T18:36:12.416Z,16.62
2022-10-22T18:39:15.501Z,16.50
2022-10-22T18:42:18.116Z,16.37
2022-10-22T18:45:20.372Z,16.58
2022-10-22T18:48:23.098Z,16.80
2022-10-22T18:51:30.886Z,17.25
2022-10-22T18:54:33.492Z,16.25
2022-10-22T18:57:35.851Z,17.57
2022-10-22T19:00:38.670Z,16.35
2022-10-22T19:03:41.415Z,17.55
2022-10-22T19:06:45.780Z,17.95
2022-10-22T19:09:48.460Z,17.02
2022-10-22T19:12:51.024Z,18.30
2022-10-22T19:15:53.265Z,17.65
2022-10-22T19:19:03.048Z,17.95
2022-10-22T19:22:05.324Z,17.40
2022-10-22T19:25:11.217Z,17.48
2022-10-22T19:28:14.394Z,18.23
2022-10-22T19:31:19.674Z,18.55
2022-10-22T19:34:22.066Z,19.98
2022-10-22T19:37:24.686Z,18.50
2022-10-22T19:40:28.390Z,19.02
2022-10-22T19:43:30.907Z,18.63
2022-10-22T19:46:33.212Z,18.60
2022-10-22T19:49:35.779Z,19.87
2022-10-22T19:52:38.053Z,18.50
2022-10-22T19:55:44.862Z,21.35
2022-10-22T19:58:47.368Z,19.07
2022-10-22T20:01:50.377Z,18.27
2022-10-22T20:04:52.915Z,19.02
2022-10-22T20:07:55.164Z,18.58
2022-10-22T20:10:58.041Z,19.08
2022-10-22T20:14:00.328Z,18.30
2022-10-22T20:17:03.005Z,20.27
2022-10-22T20:20:05.899Z,20.95
2022-10-22T20:23:08.723Z,19.70
2022-10-22T20:26:11.300Z,20.33
2022-10-22T20:29:15.452Z,18.47
2022-10-22T20:32:17.692Z,20.17
2022-10-22T20:35:20.173Z,20.37
2022-10-22T20:38:22.419Z,20.52
2022-10-22T20:41:24.899Z,19.87
2022-10-22T20:44:27.118Z,19.33
2022-10-22T20:47:39.309Z,18.75
2022-10-22T20:50:52.230Z,19.92
2022-10-22T20:53:54.767Z,19.12
2022-10-22T20:56:57.538Z,18.92
2022-10-22T21:00:00.032Z,19.23
2022-10-22T21:03:02.251Z,19.92
2022-10-22T21:06:05.736Z,19.80
2022-10-22T21:09:09.209Z,20.45
2022-10-22T21:12:11.860Z,20.50
2022-10-22T21:15:14.132Z,20.37
2022-10-22T21:18:16.597Z,20.85
2022-10-22T21:21:19.940Z,20.25
2022-10-22T21:24:24.805Z,20.02
2022-10-22T21:27:27.151Z,21.23
2022-10-22T21:30:29.682Z,20.67
2022-10-22T21:33:35.140Z,20.00
2022-10-22T21:36:37.964Z,21.42
2022-10-22T21:39:42.112Z,19.73
2022-10-22T21:42:44.845Z,21.90
2022-10-22T21:45:47.206Z,18.33
2022-10-22T21:49:03.611Z,21.48
2022-10-22T21:52:07.116Z,21.95
2022-10-22T21:55:09.739Z,17.33
2022-10-22T21:58:11.991Z,20.40
2022-10-22T22:01:15.255Z,15.80
2022-10-22T22:04:17.800Z,16.30
2022-10-22T22:07:20.216Z,19.12
2022-10-22T22:10:25.172Z,17.95
2022-10-22T22:13:27.378Z,20.35
2022-10-22T22:16:32.236Z,20.97
2022-10-22T22:19:34.551Z,19.70
2022-10-22T22:22:37.067Z,22.17
2022-10-22T22:25:39.326Z,23.75
2022-10-22T22:28:41.940Z,21.65
2022-10-22T22:31:45.897Z,23.30
2022-10-22T22:34:48.435Z,23.95
2022-10-22T22:37:50.722Z,25.40
2022-10-22T22:40:53.305Z,21.85
2022-10-22T22:47:02.984Z,22.47
2022-10-22T22:50:05.669Z,22.67
2022-10-22T22:53:08.142Z,22.25
2022-10-22T22:56:20.146Z,21.80
2022-10-22T22:59:22.726Z,21.60
2022-10-22T23:02:25.067Z,19.97
2022-10-22T23:05:27.617Z,21.90
2022-10-22T23:08:29.848Z,22.23
2022-10-22T23:11:32.501Z,20.95
2022-10-22T23:14:34.802Z,20.83
2022-10-22T23:17:37.373Z,20.67
2022-10-22T23:20:39.574Z,20.70
2022-10-22T23:23:46.559Z,23.12
2022-10-22T23:26:50.965Z,21.75
2022-10-22T23:29:53.439Z,22.52
2022-10-22T23:32:55.779Z,22.90
2022-10-22T23:36:01.613Z,21.80
2022-10-22T23:39:08.931Z,23.40
2022-10-22T23:42:11.642Z,23.20
2022-10-22T23:45:14.189Z,23.77
2022-10-22T23:48:16.863Z,22.60
2022-10-22T23:51:20.342Z,22.75
2022-10-22T23:54:22.941Z,24.25
2022-10-22T23:57:25.316Z,23.42
